Terminal Aerodrome Forecast
Issued by NWS Wilmington, OH

Current Version | Previous Version | Graphics & Text | Print | Product List | Glossary Off
Versions: 1 2 3 4 5 6 7 8 9 10 11 12 13 14 15 16 17 18 19 20

000
FTUS41 KILN 010555
TAFILN
TAF
KILN 010555Z 0106/0206 01009KT P6SM FEW040 BKN090
     FM011000 01007KT P6SM SKC
     FM011500 01013KT P6SM FEW040
     FM012300 01007KT P6SM SKC=

USA.gov is the U.S. government's official web portal to all federal, state and local government web resources and services.